createdAt,value
2022-11-04T00:00:08.709Z,8.52
2022-11-04T00:02:42.998Z,8.47
2022-11-04T00:05:16.858Z,8.33
2022-11-04T00:08:07.671Z,8.24
2022-11-04T00:10:58.527Z,8.28
2022-11-04T00:13:33.612Z,8.24
2022-11-04T00:16:24.686Z,8.25
2022-11-04T00:18:58.318Z,8.24
2022-11-04T00:21:48.689Z,8.22
2022-11-04T00:24:39.217Z,8.13
2022-11-04T00:27:31.330Z,8.09
2022-11-04T00:30:09.808Z,8.09
2022-11-04T00:33:00.812Z,8.03
2022-11-04T00:35:34.400Z,8.00
2022-11-04T00:38:07.579Z,7.89
2022-11-04T00:40:41.310Z,7.85
2022-11-04T00:43:15.285Z,7.85
2022-11-04T00:45:50.284Z,7.80
2022-11-04T00:48:23.906Z,7.78
2022-11-04T00:50:57.509Z,7.60
2022-11-04T00:53:31.183Z,7.59
2022-11-04T00:56:04.918Z,7.64
2022-11-04T00:58:38.561Z,7.62
2022-11-04T01:01:18.151Z,7.59
2022-11-04T01:03:54.260Z,7.54
2022-11-04T01:06:28.582Z,7.47
2022-11-04T01:09:04.146Z,7.31
2022-11-04T01:11:36.948Z,7.35
2022-11-04T01:14:10.079Z,7.31
2022-11-04T01:16:45.369Z,7.28
2022-11-04T01:19:19.045Z,7.26
2022-11-04T01:21:53.829Z,7.28
2022-11-04T01:24:27.918Z,7.31
2022-11-04T01:27:00.797Z,7.27
2022-11-04T01:29:33.767Z,7.20
2022-11-04T01:32:08.147Z,7.17
2022-11-04T01:34:43.465Z,7.16
2022-11-04T01:37:16.594Z,7.02
2022-11-04T01:39:50.403Z,6.99
2022-11-04T01:42:24.336Z,6.97
2022-11-04T01:45:01.102Z,6.96
2022-11-04T01:47:41.173Z,6.93
2022-11-04T01:50:18.000Z,6.80
2022-11-04T01:52:56.035Z,6.82
2022-11-04T01:55:35.921Z,6.82
2022-11-04T01:58:12.808Z,6.83
2022-11-04T02:00:46.020Z,6.80
2022-11-04T02:03:25.190Z,6.79
2022-11-04T02:05:59.605Z,6.78
2022-11-04T02:08:33.626Z,6.74
2022-11-04T02:11:07.754Z,6.61
2022-11-04T02:13:39.580Z,6.65
2022-11-04T02:16:25.781Z,6.80
2022-11-04T02:19:17.422Z,6.82
2022-11-04T02:22:25.742Z,6.80
2022-11-04T02:25:23.395Z,6.72
2022-11-04T02:28:28.103Z,6.58
2022-11-04T02:31:10.272Z,6.57
2022-11-04T02:33:54.156Z,6.62
2022-11-04T02:36:40.470Z,6.64
2022-11-04T02:39:25.925Z,6.59
2022-11-04T02:42:05.822Z,6.52
2022-11-04T02:44:46.692Z,6.43
2022-11-04T02:47:27.007Z,6.40
2022-11-04T02:50:07.677Z,6.36
2022-11-04T02:52:50.365Z,6.27
2022-11-04T02:55:28.837Z,6.24
2022-11-04T02:58:07.524Z,6.18
2022-11-04T03:00:43.711Z,6.25
2022-11-04T03:03:24.719Z,6.24
2022-11-04T03:06:02.586Z,6.17
2022-11-04T03:08:40.573Z,6.07
2022-11-04T03:11:17.243Z,6.06
2022-11-04T03:13:59.305Z,6.03
2022-11-04T03:16:39.241Z,6.04
2022-11-04T03:19:18.588Z,6.06
2022-11-04T03:21:56.867Z,6.05
2022-11-04T03:24:31.387Z,6.07
2022-11-04T03:27:11.358Z,6.05
2022-11-04T03:29:51.549Z,6.07
2022-11-04T03:32:30.374Z,6.13
2022-11-04T03:35:06.012Z,6.06
2022-11-04T03:37:39.873Z,6.11
2022-11-04T03:40:16.014Z,6.10
2022-11-04T03:42:57.460Z,6.11
2022-11-04T03:45:31.296Z,6.12
2022-11-04T03:48:07.001Z,6.13
2022-11-04T03:50:44.546Z,5.98
2022-11-04T03:53:21.994Z,6.04
2022-11-04T03:56:13.820Z,5.97
2022-11-04T03:58:58.770Z,5.92
2022-11-04T04:01:41.512Z,5.96
2022-11-04T04:04:22.170Z,5.94
2022-11-04T04:07:04.700Z,5.94
2022-11-04T04:09:43.860Z,5.92
2022-11-04T04:12:29.555Z,5.89
2022-11-04T04:15:10.045Z,5.90
2022-11-04T04:17:52.713Z,5.89
2022-11-04T04:20:30.606Z,5.87
2022-11-04T04:23:29.952Z,5.96
2022-11-04T04:26:24.641Z,5.97
2022-11-04T04:28:58.693Z,5.99
2022-11-04T04:31:57.645Z,5.93
2022-11-04T04:34:33.321Z,5.84
2022-11-04T04:37:10.725Z,5.85
2022-11-04T04:40:07.484Z,5.86
2022-11-04T04:42:58.952Z,5.85
2022-11-04T04:45:36.347Z,5.85
2022-11-04T04:48:13.351Z,5.71
2022-11-04T04:50:51.271Z,5.72
2022-11-04T04:53:25.212Z,5.76
2022-11-04T04:56:00.316Z,5.82
2022-11-04T04:58:33.255Z,5.73
2022-11-04T05:01:07.005Z,5.78
2022-11-04T05:03:44.940Z,5.80
2022-11-04T05:06:18.309Z,5.82
2022-11-04T05:08:51.148Z,5.78
2022-11-04T05:11:27.218Z,5.71
2022-11-04T05:14:00.780Z,5.55
2022-11-04T05:16:39.490Z,5.49
2022-11-04T05:19:14.037Z,5.55
2022-11-04T05:21:47.639Z,5.42
2022-11-04T05:24:20.487Z,5.40
2022-11-04T05:26:54.956Z,5.45
2022-11-04T05:29:27.855Z,5.50
2022-11-04T05:32:01.395Z,5.46
2022-11-04T05:34:35.188Z,5.42
2022-11-04T05:37:08.913Z,5.39
2022-11-04T05:39:42.542Z,5.41
2022-11-04T05:42:17.697Z,5.50
2022-11-04T05:44:51.457Z,5.48
2022-11-04T05:47:25.053Z,5.37
2022-11-04T05:49:58.899Z,5.29
2022-11-04T05:52:31.715Z,5.25
2022-11-04T05:55:05.822Z,5.31
2022-11-04T05:57:40.866Z,5.36
2022-11-04T06:00:16.512Z,5.36
2022-11-04T06:02:49.883Z,5.37
2022-11-04T06:05:22.815Z,5.36
2022-11-04T06:07:57.050Z,5.26
2022-11-04T06:10:30.780Z,5.19
2022-11-04T06:13:05.844Z,5.14
2022-11-04T06:15:39.639Z,5.11
2022-11-04T06:18:13.306Z,5.09
2022-11-04T06:20:46.291Z,4.92
2022-11-04T06:23:19.171Z,5.00
2022-11-04T06:26:00.222Z,5.09
2022-11-04T06:28:35.983Z,5.16
2022-11-04T06:31:11.772Z,5.24
2022-11-04T06:33:45.797Z,5.29
2022-11-04T06:36:19.980Z,5.37
2022-11-04T06:38:53.708Z,5.40
2022-11-04T06:41:27.390Z,5.36
2022-11-04T06:44:02.475Z,5.26
2022-11-04T06:46:39.052Z,5.20
2022-11-04T06:49:14.967Z,5.23
2022-11-04T06:51:49.316Z,5.22
2022-11-04T06:54:22.236Z,5.19
2022-11-04T06:56:55.980Z,5.19
2022-11-04T06:59:31.051Z,5.12
2022-11-04T07:02:05.528Z,5.06
2022-11-04T07:04:39.429Z,5.08
2022-11-04T07:07:13.127Z,5.08
2022-11-04T07:09:46.714Z,5.10
2022-11-04T07:12:20.443Z,5.17
2022-11-04T07:14:56.611Z,5.13
2022-11-04T07:17:29.589Z,5.11
2022-11-04T07:20:03.195Z,5.16
2022-11-04T07:22:36.076Z,5.20
2022-11-04T07:25:10.912Z,5.16
2022-11-04T07:27:44.603Z,5.23
2022-11-04T07:30:20.591Z,5.31
2022-11-04T07:32:55.098Z,5.39
2022-11-04T07:35:28.629Z,5.55
2022-11-04T07:38:04.235Z,5.64
2022-11-04T07:40:39.882Z,5.75
2022-11-04T07:43:12.761Z,5.89
2022-11-04T07:45:47.806Z,6.02
2022-11-04T07:48:21.682Z,6.01
2022-11-04T07:50:57.632Z,6.01
2022-11-04T07:53:32.340Z,6.00
2022-11-04T07:56:06.962Z,6.13
2022-11-04T07:58:41.197Z,6.33
2022-11-04T08:01:18.346Z,6.54
2022-11-04T08:03:52.419Z,6.86
2022-11-04T08:06:25.937Z,6.89
2022-11-04T08:09:00.292Z,6.84
2022-11-04T08:11:33.489Z,7.01
2022-11-04T08:14:06.488Z,7.02
2022-11-04T08:16:41.497Z,6.98
2022-11-04T08:19:15.901Z,7.03
2022-11-04T08:21:49.425Z,7.12
2022-11-04T08:24:23.337Z,7.19
2022-11-04T08:26:56.144Z,7.16
2022-11-04T08:29:30.126Z,7.34
2022-11-04T08:32:05.467Z,7.46
2022-11-04T08:34:38.462Z,7.69
2022-11-04T08:37:14.565Z,7.85
2022-11-04T08:39:48.272Z,8.06
2022-11-04T08:42:22.164Z,8.13
2022-11-04T08:44:55.859Z,8.41
2022-11-04T08:47:30.889Z,8.84
2022-11-04T08:50:04.880Z,9.52
2022-11-04T08:52:38.545Z,9.82
2022-11-04T08:55:12.580Z,10.04
2022-11-04T08:57:46.173Z,10.04
2022-11-04T09:00:20.372Z,9.42
2022-11-04T09:02:55.911Z,9.50
2022-11-04T09:05:30.308Z,9.90
2022-11-04T09:08:05.253Z,10.27
2022-11-04T09:10:42.779Z,11.28
2022-11-04T09:13:17.624Z,13.25
2022-11-04T09:15:50.699Z,14.23
2022-11-04T09:18:25.283Z,14.63
2022-11-04T09:21:02.640Z,14.70
2022-11-04T09:23:36.002Z,14.34
2022-11-04T09:26:11.594Z,14.21
2022-11-04T09:28:45.531Z,14.23
2022-11-04T09:31:20.887Z,13.41
2022-11-04T09:33:56.242Z,13.83
2022-11-04T09:36:30.686Z,13.95
2022-11-04T09:39:04.228Z,13.94
2022-11-04T09:42:02.406Z,14.12
2022-11-04T09:45:14.885Z,14.32
2022-11-04T09:47:40.844Z,14.26
2022-11-04T09:50:24.470Z,14.38
2022-11-04T09:53:02.984Z,14.52
2022-11-04T09:55:46.254Z,14.82
2022-11-04T09:58:19.818Z,15.12
2022-11-04T10:01:02.895Z,15.04
2022-11-04T10:03:49.667Z,14.40
2022-11-04T10:06:38.083Z,13.66
2022-11-04T10:09:36.236Z,14.09
2022-11-04T10:12:23.486Z,15.05
2022-11-04T10:15:10.843Z,15.07
2022-11-04T10:18:01.257Z,14.59
2022-11-04T10:20:50.669Z,14.97
2022-11-04T10:23:34.083Z,14.91
2022-11-04T10:26:16.547Z,14.66
2022-11-04T10:28:58.143Z,14.51
2022-11-04T10:31:31.869Z,14.55
2022-11-04T10:34:08.917Z,13.82
2022-11-04T10:36:42.615Z,13.82
2022-11-04T10:39:24.243Z,13.84
2022-11-04T10:41:58.282Z,13.77
2022-11-04T10:44:35.639Z,13.75
2022-11-04T10:47:33.438Z,13.63
2022-11-04T10:50:32.658Z,13.55
2022-11-04T10:53:17.971Z,13.79
2022-11-04T10:56:00.937Z,14.04
2022-11-04T10:58:38.174Z,14.09
2022-11-04T11:01:26.748Z,13.98
2022-11-04T11:04:01.300Z,13.73
2022-11-04T11:06:38.581Z,14.09
2022-11-04T11:09:19.858Z,14.34
2022-11-04T11:11:55.073Z,14.41
2022-11-04T11:14:38.080Z,14.56
2022-11-04T11:17:22.771Z,14.14
2022-11-04T11:19:58.173Z,14.21
2022-11-04T11:22:35.766Z,14.60
2022-11-04T11:25:22.622Z,14.68
2022-11-04T11:27:59.451Z,14.77
2022-11-04T11:30:35.119Z,14.47
2022-11-04T11:33:18.320Z,14.02
2022-11-04T11:35:54.246Z,13.59
2022-11-04T11:38:28.719Z,13.70
2022-11-04T11:41:24.424Z,13.81
2022-11-04T11:44:03.385Z,14.55
2022-11-04T11:46:42.071Z,14.68
2022-11-04T11:49:25.724Z,14.71
2022-11-04T11:52:22.488Z,14.59
2022-11-04T11:55:03.766Z,14.53
2022-11-04T12:01:03.203Z,14.78
2022-11-04T12:09:48.610Z,14.21
2022-11-04T12:12:53.773Z,14.14
2022-11-04T12:15:39.072Z,14.40
2022-11-04T12:18:36.683Z,14.68
2022-11-04T12:21:15.986Z,15.13
2022-11-04T12:23:55.572Z,15.44
2022-11-04T12:26:37.765Z,16.31
2022-11-04T12:29:29.899Z,17.00
2022-11-04T12:32:13.374Z,17.93
2022-11-04T12:35:00.694Z,18.15
2022-11-04T12:37:47.859Z,18.24
2022-11-04T12:40:23.012Z,18.10
2022-11-04T12:43:12.614Z,18.29
2022-11-04T12:45:56.645Z,18.81
2022-11-04T12:48:50.795Z,18.99
2022-11-04T12:51:43.352Z,18.54
2022-11-04T12:54:30.310Z,18.48
2022-11-04T12:57:14.276Z,18.74
2022-11-04T13:00:15.478Z,18.76
2022-11-04T13:02:53.038Z,18.61
2022-11-04T13:05:41.228Z,18.02
2022-11-04T13:08:23.975Z,18.61
2022-11-04T13:11:03.534Z,18.06
2022-11-04T13:13:39.934Z,18.50
2022-11-04T13:16:13.959Z,18.71
2022-11-04T13:18:49.140Z,18.33
2022-11-04T13:21:27.519Z,18.19
2022-11-04T13:24:05.688Z,17.83
2022-11-04T13:26:39.471Z,17.99
2022-11-04T13:29:16.738Z,17.29
2022-11-04T13:31:55.812Z,16.26
2022-11-04T13:34:39.584Z,15.76
2022-11-04T13:37:22.955Z,15.29
2022-11-04T13:40:00.601Z,14.91
2022-11-04T13:43:18.791Z,14.70
2022-11-04T13:45:55.342Z,14.89
2022-11-04T13:48:31.593Z,14.67
2022-11-04T13:51:08.261Z,14.88
2022-11-04T13:53:44.058Z,14.58
2022-11-04T13:56:34.852Z,14.82
2022-11-04T13:59:21.102Z,15.15
2022-11-04T14:02:35.629Z,15.39
2022-11-04T14:05:55.868Z,16.05
2022-11-04T14:08:28.884Z,16.18
2022-11-04T14:11:13.202Z,16.26
2022-11-04T14:14:01.340Z,16.29
2022-11-04T14:16:45.677Z,15.94
2022-11-04T14:19:57.701Z,15.67
2022-11-04T14:22:49.196Z,15.44
2022-11-04T14:25:29.095Z,14.76
2022-11-04T14:28:03.873Z,14.90
2022-11-04T14:30:45.761Z,14.96
2022-11-04T14:33:43.281Z,14.63
2022-11-04T14:36:35.693Z,14.75
2022-11-04T14:39:22.781Z,14.85
2022-11-04T14:41:58.645Z,15.15
2022-11-04T14:44:35.248Z,14.92
2022-11-04T14:47:19.769Z,14.68
2022-11-04T14:50:01.108Z,14.93
2022-11-04T14:52:38.631Z,14.59
2022-11-04T14:55:17.101Z,14.40
2022-11-04T14:57:52.095Z,14.50
2022-11-04T15:00:34.374Z,14.49
2022-11-04T15:03:51.963Z,14.61
2022-11-04T15:06:11.270Z,14.42
2022-11-04T15:08:46.622Z,14.48
2022-11-04T15:11:43.059Z,14.59
2022-11-04T15:14:19.303Z,15.04
2022-11-04T15:16:56.430Z,14.97
2022-11-04T15:19:33.059Z,15.02
2022-11-04T15:22:07.599Z,15.50
2022-11-04T15:24:44.314Z,15.09
2022-11-04T15:27:19.271Z,14.81
2022-11-04T15:29:55.939Z,14.85
2022-11-04T15:32:29.706Z,14.36
2022-11-04T15:35:04.302Z,14.77
2022-11-04T15:37:41.503Z,14.72
2022-11-04T15:40:16.525Z,14.69
2022-11-04T15:42:50.974Z,14.72
2022-11-04T15:45:51.295Z,14.47
2022-11-04T15:48:29.880Z,14.40
2022-11-04T15:51:13.881Z,14.50
2022-11-04T15:53:55.747Z,14.14
2022-11-04T15:56:31.576Z,14.16
2022-11-04T15:59:11.148Z,14.01
2022-11-04T16:01:49.302Z,13.73
2022-11-04T16:04:24.976Z,13.80
2022-11-04T16:07:24.509Z,13.79
2022-11-04T16:09:58.806Z,13.79
2022-11-04T16:12:37.278Z,13.54
2022-11-04T16:15:32.299Z,13.54
2022-11-04T16:18:07.205Z,13.67
2022-11-04T16:20:40.094Z,13.46
2022-11-04T16:23:19.297Z,13.38
2022-11-04T16:25:59.382Z,13.36
2022-11-04T16:28:36.667Z,13.28
2022-11-04T16:31:25.620Z,13.40
2022-11-04T16:33:58.600Z,13.09
2022-11-04T16:36:35.686Z,13.05
2022-11-04T16:39:10.638Z,13.06
2022-11-04T16:41:43.921Z,12.95
2022-11-04T16:44:21.069Z,12.96
2022-11-04T16:46:57.099Z,13.06
2022-11-04T16:49:30.212Z,13.23
2022-11-04T16:52:03.617Z,12.94
2022-11-04T16:54:37.810Z,12.85
2022-11-04T16:57:14.767Z,12.96
2022-11-04T16:59:48.132Z,13.17
2022-11-04T17:02:27.264Z,13.32
2022-11-04T17:05:00.317Z,13.42
2022-11-04T17:07:51.487Z,13.34
2022-11-04T17:10:29.297Z,13.41
2022-11-04T17:13:02.429Z,13.37
2022-11-04T17:15:35.617Z,13.36
2022-11-04T17:18:11.982Z,13.43
2022-11-04T17:20:49.055Z,13.39
2022-11-04T17:23:23.664Z,13.32
2022-11-04T17:25:58.769Z,13.30
2022-11-04T17:28:33.517Z,13.09
2022-11-04T17:31:07.522Z,13.01
2022-11-04T17:33:41.312Z,13.06
2022-11-04T17:36:19.292Z,12.59
2022-11-04T17:38:53.230Z,12.88
2022-11-04T17:41:45.435Z,12.69
2022-11-04T17:44:18.357Z,12.74
2022-11-04T17:46:52.019Z,12.85
2022-11-04T17:49:26.668Z,12.92
2022-11-04T17:52:01.135Z,13.01
2022-11-04T17:54:34.078Z,13.06
2022-11-04T17:57:08.489Z,12.97
2022-11-04T17:59:41.719Z,13.03
2022-11-04T18:02:14.766Z,12.96
2022-11-04T18:04:47.707Z,13.01
2022-11-04T18:07:20.532Z,13.08
2022-11-04T18:09:53.492Z,12.97
2022-11-04T18:12:41.525Z,12.76
2022-11-04T18:15:17.548Z,12.91
2022-11-04T18:17:52.615Z,12.65
2022-11-04T18:20:25.510Z,12.91
2022-11-04T18:23:00.872Z,12.90
2022-11-04T18:25:34.185Z,12.95
2022-11-04T18:28:08.636Z,12.92
2022-11-04T18:30:42.206Z,12.88
2022-11-04T18:33:15.050Z,12.85
2022-11-04T18:35:47.978Z,12.81
2022-11-04T18:38:21.560Z,12.60
2022-11-04T18:40:54.942Z,12.76
2022-11-04T18:43:29.932Z,12.61
2022-11-04T18:46:08.354Z,12.72
2022-11-04T18:48:41.826Z,12.61
2022-11-04T18:51:16.039Z,12.55
2022-11-04T18:53:49.635Z,12.53
2022-11-04T18:56:24.256Z,12.27
2022-11-04T18:58:58.459Z,12.39
2022-11-04T19:01:34.694Z,12.41
2022-11-04T19:04:08.445Z,12.16
2022-11-04T19:06:44.413Z,12.36
2022-11-04T19:12:29.385Z,12.46
2022-11-04T19:15:05.546Z,12.44
2022-11-04T19:17:39.278Z,12.58
2022-11-04T19:20:13.735Z,12.42
2022-11-04T19:22:47.995Z,12.43
2022-11-04T19:25:21.016Z,12.64
2022-11-04T19:28:18.623Z,12.56
2022-11-04T19:30:58.900Z,12.46
2022-11-04T19:33:32.846Z,12.45
2022-11-04T19:36:07.972Z,12.52
2022-11-04T19:38:42.098Z,12.27
2022-11-04T19:41:30.435Z,12.38
2022-11-04T19:44:06.294Z,12.47
2022-11-04T19:46:42.068Z,12.61
2022-11-04T19:49:15.211Z,12.54
2022-11-04T19:51:48.481Z,12.49
2022-11-04T19:54:21.458Z,12.39
2022-11-04T19:56:54.993Z,12.36
2022-11-04T19:59:27.862Z,12.30
2022-11-04T20:02:02.168Z,12.51
2022-11-04T20:04:35.948Z,12.50
2022-11-04T20:07:08.947Z,12.13
2022-11-04T20:09:42.166Z,12.08
2022-11-04T20:12:33.506Z,11.90
2022-11-04T20:15:08.627Z,12.21
2022-11-04T20:17:43.055Z,12.08
2022-11-04T20:20:17.138Z,12.22
2022-11-04T20:22:50.743Z,11.89
2022-11-04T20:25:24.688Z,12.01
2022-11-04T20:27:58.209Z,11.90
2022-11-04T20:30:32.044Z,11.64
2022-11-04T20:33:07.701Z,11.94
2022-11-04T20:35:41.442Z,11.98
2022-11-04T20:38:14.973Z,12.05
2022-11-04T20:40:48.572Z,12.08
2022-11-04T20:43:21.344Z,12.04
2022-11-04T20:45:54.185Z,12.03
2022-11-04T20:48:28.339Z,11.79
2022-11-04T20:51:07.264Z,11.65
2022-11-04T20:53:40.493Z,11.97
2022-11-04T20:56:15.975Z,11.81
2022-11-04T20:58:50.241Z,11.81
2022-11-04T21:01:28.112Z,11.89
2022-11-04T21:04:04.807Z,11.87
2022-11-04T21:06:38.926Z,11.91
2022-11-04T21:09:14.284Z,12.12
2022-11-04T21:11:47.552Z,12.30
2022-11-04T21:14:20.423Z,12.32
2022-11-04T21:16:53.304Z,12.13
2022-11-04T21:19:27.469Z,12.31
2022-11-04T21:22:00.308Z,12.18
2022-11-04T21:24:38.976Z,12.24
2022-11-04T21:27:12.272Z,12.25
2022-11-04T21:29:45.281Z,12.24
2022-11-04T21:32:18.145Z,12.16
2022-11-04T21:34:52.337Z,12.33
2022-11-04T21:37:25.182Z,12.12
2022-11-04T21:39:58.003Z,11.99
2022-11-04T21:42:30.969Z,12.01
2022-11-04T21:45:05.751Z,11.97
2022-11-04T21:47:38.563Z,12.18
2022-11-04T21:50:17.882Z,12.07
2022-11-04T21:52:51.069Z,12.33
2022-11-04T21:55:23.856Z,12.37
2022-11-04T21:57:56.651Z,12.10
2022-11-04T22:00:29.476Z,12.16
2022-11-04T22:03:02.285Z,12.33
2022-11-04T22:05:36.565Z,12.04
2022-11-04T22:08:18.199Z,12.27
2022-11-04T22:10:51.029Z,12.45
2022-11-04T22:13:24.820Z,12.46
2022-11-04T22:16:00.800Z,12.30
2022-11-04T22:18:34.643Z,12.34
2022-11-04T22:21:11.192Z,12.22
2022-11-04T22:23:44.584Z,12.15
2022-11-04T22:26:19.710Z,12.14
2022-11-04T22:28:53.380Z,12.23
2022-11-04T22:31:28.562Z,12.30
2022-11-04T22:34:02.357Z,12.16
2022-11-04T22:36:36.797Z,12.23
2022-11-04T22:39:16.034Z,12.24
2022-11-04T22:41:49.944Z,12.34
2022-11-04T22:44:22.811Z,12.27
2022-11-04T22:46:55.613Z,12.20
2022-11-04T22:49:28.477Z,12.29
2022-11-04T22:52:02.669Z,12.31
2022-11-04T22:54:35.489Z,12.17
2022-11-04T22:57:08.302Z,12.17
2022-11-04T22:59:41.101Z,11.96
2022-11-04T23:02:14.120Z,12.07
2022-11-04T23:04:47.022Z,12.25
2022-11-04T23:07:21.545Z,12.14
2022-11-04T23:10:12.334Z,11.91
2022-11-04T23:13:02.548Z,11.96
2022-11-04T23:15:52.932Z,12.07
2022-11-04T23:18:43.966Z,12.23
2022-11-04T23:21:36.496Z,12.13
2022-11-04T23:24:27.865Z,12.28
2022-11-04T23:27:00.760Z,12.13
2022-11-04T23:29:50.883Z,11.77
2022-11-04T23:32:27.232Z,12.17
2022-11-04T23:35:17.587Z,11.99
2022-11-04T23:37:50.390Z,11.76
2022-11-04T23:40:24.554Z,11.83
2022-11-04T23:42:57.659Z,11.81
2022-11-04T23:45:47.632Z,11.95
2022-11-04T23:48:38.048Z,11.77
2022-11-04T23:51:30.027Z,11.75
2022-11-04T23:54:20.471Z,11.81
2022-11-04T23:57:13.623Z,11.82
